Time;durP1;ratioP1;P1;durP2;ratioP2;P2;SDS_P1;SDS_P2;PMS_P1;PMS_P2;Temp;Humidity;BMP_temperature;BMP_pressure;BME280_temperature;BME280_humidity;BME280_pressure;Samples;Min_cycle;Max_cycle;Signal;HPM_P1;HPM_P2
2023/07/20 00:01:48;;;;;;;0.10;0.10;;;;;;;13.50;82.46;98333.75;4958661;28;20051;-73
2023/07/20 00:04:14;;;;;;;0.10;0.10;;;;;;;13.49;81.92;98341.19;4987814;28;20109;-73
2023/07/20 00:06:40;;;;;;;0.10;0.10;;;;;;;13.44;82.19;98336.69;4981331;28;20050;-73
2023/07/20 00:09:08;;;;;;;0.10;0.10;;;;;;;13.42;82.27;98343.63;4990279;28;20081;-73
2023/07/20 00:11:40;;;;;;;0.10;0.10;;;;;;;13.38;82.40;98343.47;4980134;28;20050;-73
2023/07/20 00:14:06;;;;;;;0.10;0.10;;;;;;;13.36;82.66;98361.41;4944378;28;20098;-72
2023/07/20 00:16:33;;;;;;;0.20;0.20;;;;;;;13.35;82.66;98346.88;4975537;28;20038;-72
2023/07/20 00:18:59;;;;;;;0.10;0.10;;;;;;;13.32;82.75;98350.28;4973169;28;20061;-72
2023/07/20 00:21:25;;;;;;;0.10;0.10;;;;;;;13.23;83.02;98338.50;4973329;28;20050;-72
2023/07/20 00:23:51;;;;;;;0.10;0.10;;;;;;;13.27;83.01;98345.75;4981682;28;20422;-72
2023/07/20 00:26:38;;;;;;;0.10;0.10;;;;;;;13.28;82.64;98357.56;4982368;28;20653;-73
2023/07/20 00:29:04;;;;;;;0.10;0.10;;;;;;;13.27;82.59;98350.47;4990035;28;20073;-71
2023/07/20 00:31:30;;;;;;;0.10;0.10;;;;;;;13.31;82.49;98363.19;4982092;28;20065;-72
2023/07/20 00:33:56;;;;;;;0.10;0.10;;;;;;;13.22;82.88;98348.69;4975666;28;20251;-72
2023/07/20 00:36:23;;;;;;;0.10;0.10;;;;;;;13.25;83.02;98359.00;4976036;28;20905;-72
2023/07/20 00:38:49;;;;;;;0.10;0.10;;;;;;;13.22;83.31;98348.69;4979932;28;20185;-72
2023/07/20 00:41:17;;;;;;;0.10;0.10;;;;;;;13.20;84.00;98348.22;4980419;28;20145;-72
2023/07/20 00:43:44;;;;;;;0.10;0.10;;;;;;;13.19;84.77;98357.59;4979825;28;20057;-71
2023/07/20 00:46:12;;;;;;;0.10;0.10;;;;;;;13.18;84.85;98370.50;4975656;28;20436;-72
2023/07/20 00:48:40;;;;;;;0.10;0.10;;;;;;;13.19;84.04;98360.34;4972943;28;20141;-72
2023/07/20 00:51:06;;;;;;;0.10;0.10;;;;;;;13.16;84.36;98364.53;4962192;28;20054;-72
2023/07/20 00:53:32;;;;;;;0.10;0.10;;;;;;;13.16;84.03;98366.44;4975161;28;20140;-72
2023/07/20 00:56:01;;;;;;;0.10;0.10;;;;;;;13.14;84.17;98355.81;4993178;28;20153;-73
2023/07/20 00:58:28;;;;;;;0.10;0.10;;;;;;;13.11;84.82;98352.91;4958357;28;20541;-72
2023/07/20 01:00:55;;;;;;;0.10;0.10;;;;;;;13.08;84.92;98354.38;4964457;28;20510;-72
2023/07/20 01:03:22;;;;;;;0.10;0.10;;;;;;;13.07;85.36;98354.72;4969107;28;20047;-73
2023/07/20 01:05:56;;;;;;;0.10;0.10;;;;;;;13.07;85.32;98366.47;4962504;28;20038;-73
2023/07/20 01:08:31;;;;;;;0.10;0.10;;;;;;;13.08;85.57;98364.56;4970379;28;20058;-73
2023/07/20 01:11:03;;;;;;;0.10;0.10;;;;;;;13.10;84.97;98362.28;4973423;28;20066;-72
2023/07/20 01:13:29;;;;;;;0.10;0.10;;;;;;;13.11;84.83;98359.22;4993853;28;20051;-72
2023/07/20 01:16:01;;;;;;;0.10;0.10;;;;;;;13.10;84.38;98363.06;4979860;28;20059;-72
2023/07/20 01:18:27;;;;;;;0.10;0.10;;;;;;;13.07;84.39;98371.19;4970036;28;20312;-73
2023/07/20 01:20:59;;;;;;;0.10;0.10;;;;;;;13.01;84.63;98359.56;4976030;28;20411;-72
2023/07/20 01:24:00;;;;;;;0.10;0.10;;;;;;;12.99;84.72;98359.88;4967479;28;20211;-71
2023/07/20 01:26:41;;;;;;;0.10;0.10;;;;;;;12.96;84.98;98363.28;4976478;28;20051;-71
2023/07/20 01:29:42;;;;;;;0.10;0.10;;;;;;;12.95;85.12;98369.09;4976283;28;20518;-71
2023/07/20 01:32:11;;;;;;;0.10;0.10;;;;;;;12.93;84.61;98366.69;4995375;28;20106;-71
2023/07/20 01:34:39;;;;;;;0.10;0.10;;;;;;;12.89;85.12;98361.03;4975471;28;20391;-71
2023/07/20 01:37:06;;;;;;;0.10;0.10;;;;;;;12.90;85.52;98375.56;4979672;28;20150;-71
2023/07/20 01:39:33;;;;;;;0.10;0.10;;;;;;;12.88;85.83;98369.59;4975397;28;20426;-71
2023/07/20 01:42:00;;;;;;;0.10;0.10;;;;;;;12.88;86.21;98373.13;4976689;28;20211;-71
2023/07/20 01:44:27;;;;;;;0.10;0.10;;;;;;;12.88;86.37;98370.38;4981741;28;20062;-71
2023/07/20 01:46:53;;;;;;;0.10;0.10;;;;;;;12.89;86.04;98379.44;4993393;28;20340;-71
2023/07/20 01:49:21;;;;;;;0.10;0.10;;;;;;;12.87;86.15;98376.19;4972742;28;20054;-72
2023/07/20 01:51:47;;;;;;;0.10;0.10;;;;;;;12.87;86.42;98374.28;4981899;28;20443;-70
2023/07/20 01:54:13;;;;;;;0.10;0.10;;;;;;;12.89;86.49;98369.25;4978476;28;20636;-71
2023/07/20 01:56:40;;;;;;;;;;;;;;;12.90;86.74;98370.88;4981766;28;20050;-72
2023/07/20 01:59:07;;;;;;;0.10;0.10;;;;;;;12.91;86.44;98369.75;4975136;28;20395;-72
2023/07/20 02:01:33;;;;;;;0.10;0.10;;;;;;;12.93;86.24;98360.38;4980090;28;20052;-71
2023/07/20 02:04:00;;;;;;;0.10;0.10;;;;;;;12.95;86.47;98377.31;4979632;28;20149;-72
2023/07/20 02:06:27;;;;;;;0.10;0.10;;;;;;;12.95;86.37;98374.56;4982708;28;20058;-72
2023/07/20 02:08:54;;;;;;;0.10;0.10;;;;;;;12.88;86.20;98351.19;4993189;28;20050;-72
2023/07/20 02:11:20;;;;;;;0.10;0.10;;;;;;;12.97;86.30;98370.38;4979813;28;20072;-71
2023/07/20 02:13:46;;;;;;;0.10;0.10;;;;;;;12.97;86.51;98367.63;4976633;28;20557;-72
2023/07/20 02:16:12;;;;;;;0.10;0.10;;;;;;;12.99;86.57;98375.56;4975913;28;20043;-72
2023/07/20 02:18:39;;;;;;;0.10;0.10;;;;;;;12.97;85.83;98370.38;4993194;28;20116;-72
2023/07/20 02:21:08;;;;;;;0.10;0.10;;;;;;;12.99;85.99;98365.38;4976516;28;20082;-72
2023/07/20 02:23:36;;;;;;;0.10;0.10;;;;;;;13.00;85.56;98372.47;4973049;28;20109;-72
2023/07/20 02:26:02;;;;;;;0.10;0.10;;;;;;;13.03;85.57;98368.28;4960157;28;21142;-71
2023/07/20 02:28:28;;;;;;;0.10;0.10;;;;;;;12.98;84.98;98361.00;4991335;28;20080;-71
2023/07/20 02:30:55;;;;;;;0.10;0.10;;;;;;;13.04;85.13;98372.63;4958882;28;20047;-71
2023/07/20 02:33:21;;;;;;;0.10;0.10;;;;;;;13.07;85.19;98377.44;4980528;28;20043;-71
2023/07/20 02:35:47;;;;;;;0.13;0.13;;;;;;;13.09;85.08;98372.44;4979106;28;20403;-72
2023/07/20 02:38:14;;;;;;;0.10;0.10;;;;;;;13.11;85.38;98381.19;4994904;28;20423;-73
2023/07/20 02:40:41;;;;;;;0.20;0.20;;;;;;;13.14;85.56;98377.78;4976794;28;20503;-72
2023/07/20 02:43:09;;;;;;;0.10;0.10;;;;;;;13.16;85.42;98389.22;4972421;28;20057;-72
2023/07/20 02:45:35;;;;;;;0.20;0.20;;;;;;;13.19;85.69;98385.03;4976451;28;20053;-72
2023/07/20 02:48:02;;;;;;;0.10;0.10;;;;;;;13.23;85.35;98385.97;4972157;28;20147;-72
2023/07/20 02:50:29;;;;;;;0.10;0.10;;;;;;;13.26;85.41;98390.81;4983169;28;20050;-72
2023/07/20 02:52:55;;;;;;;0.20;0.20;;;;;;;13.27;83.92;98391.63;4987655;28;20062;-72
2023/07/20 02:55:21;;;;;;;0.20;0.20;;;;;;;13.29;84.27;98397.59;4977678;28;20133;-72
2023/07/20 02:57:50;;;;;;;0.20;0.20;;;;;;;13.32;84.23;98397.72;4964800;28;20073;-72
2023/07/20 03:00:19;;;;;;;0.20;0.20;;;;;;;13.39;83.93;98408.19;4984096;28;20361;-72
2023/07/20 03:02:47;;;;;;;0.10;0.10;;;;;;;13.43;83.60;98406.47;4968940;28;20093;-73
2023/07/20 03:05:13;;;;;;;0.10;0.10;;;;;;;13.45;83.61;98406.94;4982838;28;20051;-71
2023/07/20 03:07:40;;;;;;;0.10;0.10;;;;;;;13.45;83.08;98406.94;4981278;28;20145;-71
2023/07/20 03:10:09;;;;;;;0.20;0.20;;;;;;;13.51;83.19;98396.59;4980890;28;20053;-72
2023/07/20 03:12:36;;;;;;;0.10;0.10;;;;;;;13.59;82.32;98408.69;4979470;28;20150;-70
2023/07/20 03:15:04;;;;;;;0.10;0.10;;;;;;;13.59;82.45;98406.72;4966275;28;20046;-71
2023/07/20 03:17:31;;;;;;;0.20;0.20;;;;;;;13.64;82.62;98413.97;4992557;28;20051;-72
2023/07/20 03:19:59;;;;;;;0.10;0.10;;;;;;;13.69;82.22;98421.22;4973099;28;20074;-71
2023/07/20 03:22:26;;;;;;;0.17;0.17;;;;;;;13.67;82.05;98407.03;4971892;28;20054;-72
2023/07/20 03:24:52;;;;;;;0.13;0.13;;;;;;;13.80;81.61;98411.47;4980679;28;20077;-72
2023/07/20 03:27:18;;;;;;;0.10;0.10;;;;;;;13.86;81.24;98425.81;4976430;28;20053;-71
2023/07/20 03:29:45;;;;;;;0.20;0.20;;;;;;;13.91;80.49;98417.41;4980863;28;20499;-71
2023/07/20 03:32:13;;;;;;;0.20;0.20;;;;;;;13.86;79.87;98401.94;4983348;28;20055;-71
2023/07/20 03:34:40;;;;;;;0.20;0.20;;;;;;;13.96;80.04;98419.97;4981456;28;20085;-72
2023/07/20 03:37:06;;;;;;;0.20;0.20;;;;;;;13.91;79.99;98414.69;4974181;28;20046;-71
2023/07/20 03:39:32;;;;;;;0.20;0.20;;;;;;;14.09;80.14;98420.88;4978684;28;20056;-71
2023/07/20 03:41:59;;;;;;;0.20;0.20;;;;;;;14.16;80.13;98423.09;4973094;28;20050;-71
2023/07/20 03:44:25;;;;;;;0.20;0.20;;;;;;;14.22;79.10;98415.47;4996538;28;20053;-71
2023/07/20 03:46:51;;;;;;;0.20;0.20;;;;;;;14.28;78.48;98408.63;4975947;28;20059;-71
2023/07/20 03:49:19;;;;;;;0.20;0.20;;;;;;;14.35;78.19;98411.66;4977792;28;20462;-71
2023/07/20 03:51:45;;;;;;;0.20;0.20;;;;;;;14.37;77.38;98414.88;4991915;28;20047;-71
2023/07/20 03:54:11;;;;;;;0.20;0.20;;;;;;;14.44;77.50;98420.66;4980084;28;20070;-71
2023/07/20 03:56:38;;;;;;;0.20;0.20;;;;;;;14.53;76.98;98426.09;4973382;28;20109;-71
2023/07/20 03:59:04;;;;;;;0.20;0.20;;;;;;;14.63;76.67;98426.81;4980084;28;20062;-71
2023/07/20 04:01:36;;;;;;;0.20;0.20;;;;;;;14.83;75.81;98436.25;4958478;28;20045;-72
2023/07/20 04:04:06;;;;;;;0.20;0.20;;;;;;;14.90;74.50;98420.00;4989572;28;20096;-73
2023/07/20 04:06:34;;;;;;;0.20;0.20;;;;;;;15.06;74.02;98427.63;4950764;28;20054;-72
2023/07/20 04:09:00;;;;;;;0.20;0.20;;;;;;;15.27;73.93;98419.31;4974134;28;20054;-72
2023/07/20 04:11:26;;;;;;;0.20;0.20;;;;;;;15.46;73.36;98424.31;4975692;28;20046;-72
2023/07/20 04:13:53;;;;;;;0.30;0.30;;;;;;;15.62;72.54;98423.66;4975349;28;20502;-71
2023/07/20 04:16:20;;;;;;;0.20;0.20;;;;;;;15.70;72.24;98420.00;4980459;28;20050;-71
2023/07/20 04:18:46;;;;;;;0.20;0.20;;;;;;;15.73;72.25;98431.09;4965914;28;20430;-72
2023/07/20 04:21:13;;;;;;;0.20;0.20;;;;;;;15.61;71.63;98422.84;4961703;28;20047;-71
2023/07/20 04:23:40;;;;;;;0.20;0.20;;;;;;;15.53;71.94;98424.56;4979841;28;20050;-71
2023/07/20 04:26:07;;;;;;;0.20;0.20;;;;;;;15.42;72.92;98421.41;4971154;28;20518;-72
2023/07/20 04:28:33;;;;;;;0.20;0.20;;;;;;;15.28;73.52;98424.50;4973447;28;20557;-72
2023/07/20 04:31:10;;;;;;;0.20;0.20;;;;;;;15.17;74.40;98423.31;4977732;28;20043;-72
2023/07/20 04:33:37;;;;;;;0.20;0.20;;;;;;;15.20;73.48;98430.88;4975990;28;20045;-72
2023/07/20 04:36:04;;;;;;;0.20;0.20;;;;;;;15.12;74.27;98426.28;4974931;28;20446;-73
2023/07/20 04:38:33;;;;;;;0.20;0.20;;;;;;;15.19;74.22;98431.25;4986022;28;20047;-73
2023/07/20 04:41:13;;;;;;;0.20;0.20;;;;;;;15.30;74.59;98438.72;4986865;28;20129;-72
2023/07/20 04:43:42;;;;;;;0.20;0.20;;;;;;;15.39;74.58;98430.38;4973200;28;20133;-73
2023/07/20 04:46:09;;;;;;;;;;;;;;;15.51;73.28;98439.81;4961525;28;20057;-74
2023/07/20 04:48:36;;;;;;;0.28;0.28;;;;;;;15.43;73.38;98430.50;4977766;28;20348;-73
2023/07/20 04:51:03;;;;;;;0.20;0.20;;;;;;;15.43;72.66;98434.03;4974905;28;20157;-73
2023/07/20 04:53:30;;;;;;;0.20;0.20;;;;;;;15.43;73.02;98433.25;4973883;28;20072;-72
2023/07/20 04:55:57;;;;;;;0.20;0.20;;;;;;;15.54;73.58;98436.38;4971618;28;20056;-72
2023/07/20 04:58:26;;;;;;;0.20;0.20;;;;;;;15.57;73.42;98436.50;4965488;28;20050;-73
2023/07/20 05:00:54;;;;;;;0.20;0.20;;;;;;;15.61;72.82;98444.91;4979706;28;20934;-73
2023/07/20 05:03:21;;;;;;;0.28;0.28;;;;;;;15.54;71.90;98422.59;4989582;28;20102;-73
2023/07/20 05:05:48;;;;;;;0.28;0.28;;;;;;;15.63;72.19;98430.75;4973081;28;20465;-72
2023/07/20 05:08:16;;;;;;;0.20;0.20;;;;;;;15.71;72.22;98436.16;4968231;28;20050;-71
2023/07/20 05:10:42;;;;;;;0.30;0.30;;;;;;;15.79;72.20;98445.47;4971902;28;20097;-72
2023/07/20 05:13:09;;;;;;;0.20;0.20;;;;;;;15.85;71.38;98440.53;4965222;28;20049;-73
2023/07/20 05:15:36;;;;;;;0.20;0.20;;;;;;;15.83;71.13;98427.09;4963814;28;20565;-72
2023/07/20 05:18:04;;;;;;;0.20;0.20;;;;;;;15.91;71.42;98432.88;4967485;28;20577;-72
2023/07/20 05:20:31;;;;;;;0.20;0.20;;;;;;;15.97;71.29;98434.25;4985229;28;20060;-71
2023/07/20 05:22:57;;;;;;;;;;;;;;;16.05;70.47;98441.63;4976418;28;21839;-71
2023/07/20 05:25:23;;;;;;;0.20;0.20;;;;;;;15.98;68.38;98442.19;4973076;28;20028;-72
2023/07/20 05:27:50;;;;;;;0.25;0.25;;;;;;;15.94;69.29;98440.47;4979795;28;20059;-71
2023/07/20 05:30:16;;;;;;;0.30;0.30;;;;;;;15.99;69.92;98445.75;4978639;28;20051;-72
2023/07/20 05:32:47;;;;;;;0.20;0.20;;;;;;;16.09;69.13;98447.25;4978435;28;20058;-72
2023/07/20 05:35:14;;;;;;;0.30;0.30;;;;;;;16.14;68.96;98442.28;4972149;28;20047;-72
2023/07/20 05:37:40;;;;;;;0.30;0.30;;;;;;;16.24;69.30;98454.03;4971899;28;20062;-72
2023/07/20 05:40:07;;;;;;;0.20;0.20;;;;;;;16.27;67.88;98442.28;4971601;28;20046;-72
2023/07/20 05:42:33;;;;;;;;;;;;;;;16.28;68.03;98446.66;4971701;28;20129;-71
2023/07/20 05:44:59;;;;;;;0.30;0.30;;;;;;;16.29;67.42;98446.31;4981885;28;20429;-73
2023/07/20 05:47:25;;;;;;;0.20;0.20;;;;;;;16.34;67.67;98442.53;4974631;28;20047;-72
2023/07/20 05:49:53;;;;;;;0.20;0.20;;;;;;;16.33;66.83;98446.44;4974931;28;20050;-72
2023/07/20 05:52:20;;;;;;;0.20;0.20;;;;;;;16.32;67.39;98441.25;4985073;28;20192;-71
2023/07/20 05:54:46;;;;;;;0.20;0.20;;;;;;;16.37;67.43;98452.88;4969751;28;20050;-72
2023/07/20 05:57:13;;;;;;;0.20;0.20;;;;;;;16.42;66.31;98438.03;4976088;28;20122;-72
2023/07/20 05:59:43;;;;;;;0.30;0.30;;;;;;;16.47;65.73;98446.06;4978270;28;20057;-72
2023/07/20 06:02:11;;;;;;;0.30;0.30;;;;;;;16.51;65.77;98448.94;4975856;28;20521;-72
2023/07/20 06:04:38;;;;;;;0.30;0.30;;;;;;;16.54;65.71;98446.25;4976762;28;20060;-70
2023/07/20 06:07:07;;;;;;;;;;;;;;;16.61;64.94;98453.97;4980832;28;20116;-72
2023/07/20 06:09:33;;;;;;;0.28;0.28;;;;;;;16.65;64.05;98445.78;4976805;28;20028;-72
2023/07/20 06:12:00;;;;;;;0.20;0.20;;;;;;;16.64;63.99;98452.47;4980315;28;20046;-72
2023/07/20 06:14:26;;;;;;;0.20;0.20;;;;;;;16.66;63.32;98455.69;4973911;28;20074;-72
2023/07/20 06:17:18;;;;;;;0.20;0.20;;;;;;;16.68;63.02;98451.44;4981617;28;20066;-72
2023/07/20 06:19:49;;;;;;;;;;;;;;;16.75;63.48;98463.81;4967254;28;20039;-72
2023/07/20 06:22:17;;;;;;;0.20;0.20;;;;;;;16.86;63.09;98464.94;4969498;28;19926;-72
2023/07/20 06:24:43;;;;;;;0.30;0.30;;;;;;;16.97;62.41;98462.50;4984073;28;20046;-73
2023/07/20 06:27:10;;;;;;;0.20;0.20;;;;;;;17.10;62.32;98460.53;4976842;28;20069;-73
2023/07/20 06:29:36;;;;;;;0.20;0.20;;;;;;;17.17;61.04;98452.44;4982279;28;20054;-73
2023/07/20 06:32:02;;;;;;;0.30;0.30;;;;;;;17.35;60.15;98454.88;4968705;28;20062;-73
2023/07/20 06:34:29;;;;;;;0.30;0.30;;;;;;;17.54;59.76;98456.97;4967785;28;20468;-73
2023/07/20 06:36:56;;;;;;;0.30;0.30;;;;;;;17.61;59.38;98470.19;4964829;28;20541;-74
2023/07/20 06:39:24;;;;;;;0.22;0.22;;;;;;;17.64;58.30;98445.41;4983910;28;20074;-73
2023/07/20 06:41:50;;;;;;;0.20;0.20;;;;;;;17.76;57.90;98450.03;5003984;28;20133;-72
2023/07/20 06:44:16;;;;;;;0.20;0.20;;;;;;;17.91;57.74;98442.09;5003206;28;20572;-72
2023/07/20 06:46:43;;;;;;;0.30;0.30;;;;;;;18.09;56.75;98450.84;4990560;28;20061;-72
2023/07/20 06:49:09;;;;;;;0.30;0.30;;;;;;;18.19;56.34;98457.81;4989639;28;20565;-72
2023/07/20 06:51:35;;;;;;;0.30;0.30;;;;;;;18.17;55.69;98452.63;4988313;28;20059;-72
2023/07/20 06:54:04;;;;;;;0.30;0.30;;;;;;;18.23;55.14;98442.91;4988661;28;20600;-72
2023/07/20 06:56:32;;;;;;;0.30;0.30;;;;;;;18.31;54.81;98443.06;4986299;28;20069;-72
2023/07/20 06:58:58;;;;;;;0.30;0.30;;;;;;;18.43;53.73;98448.50;4970849;28;20141;-72
2023/07/20 07:01:24;;;;;;;0.30;0.30;;;;;;;18.39;52.83;98448.41;4987376;28;20042;-71
2023/07/20 07:03:51;;;;;;;0.30;0.30;;;;;;;18.50;52.71;98437.56;4988431;28;20070;-71
2023/07/20 07:06:17;;;;;;;0.30;0.30;;;;;;;18.67;53.40;98454.94;4986493;28;20049;-71
2023/07/20 07:08:44;;;;;;;0.30;0.30;;;;;;;18.66;52.83;98456.91;4988730;28;20046;-71
2023/07/20 07:11:10;;;;;;;0.30;0.30;;;;;;;18.67;52.16;98441.09;4984543;28;20136;-72
2023/07/20 07:13:38;;;;;;;0.30;0.30;;;;;;;18.81;51.53;98457.19;4988361;28;20042;-72
2023/07/20 07:16:05;;;;;;;0.30;0.30;;;;;;;18.96;50.49;98450.78;4990111;28;20066;-72
2023/07/20 07:18:31;;;;;;;0.30;0.30;;;;;;;19.10;48.79;98466.13;4989286;28;20107;-71
2023/07/20 07:20:58;;;;;;;0.30;0.30;;;;;;;19.12;47.88;98453.53;4985912;28;20057;-71
2023/07/20 07:23:24;;;;;;;0.30;0.30;;;;;;;19.34;48.52;98462.25;4985265;28;20054;-72
2023/07/20 07:25:50;;;;;;;0.30;0.30;;;;;;;19.58;47.94;98452.00;4985855;28;20502;-72
2023/07/20 07:28:16;;;;;;;0.30;0.30;;;;;;;19.83;47.96;98460.75;4985992;28;20057;-70
2023/07/20 07:30:44;;;;;;;0.30;0.30;;;;;;;20.07;47.82;98464.38;4987697;28;20054;-72
2023/07/20 07:33:10;;;;;;;0.30;0.30;;;;;;;20.21;47.42;98471.28;4986777;28;20594;-72
2023/07/20 07:35:36;;;;;;;0.40;0.40;;;;;;;19.93;46.55;98462.13;4985764;28;20227;-70
2023/07/20 07:38:03;;;;;;;0.40;0.40;;;;;;;19.89;47.50;98468.75;4985952;28;20079;-71
2023/07/20 07:40:29;;;;;;;0.30;0.30;;;;;;;20.34;46.95;98463.59;4988457;28;20132;-72
2023/07/20 07:42:55;;;;;;;0.40;0.40;;;;;;;20.40;46.79;98465.66;4987434;28;20452;-72
2023/07/20 07:45:21;;;;;;;0.30;0.30;;;;;;;20.52;46.90;98463.81;4986418;28;20053;-72
2023/07/20 07:47:49;;;;;;;0.30;0.30;;;;;;;20.83;46.97;98464.69;4985035;28;20149;-71
2023/07/20 07:50:16;;;;;;;0.40;0.40;;;;;;;20.87;45.56;98464.72;5001727;28;20077;-72
2023/07/20 07:52:42;;;;;;;0.37;0.37;;;;;;;20.37;45.91;98465.59;5002219;28;20058;-72
2023/07/20 07:55:08;;;;;;;0.40;0.40;;;;;;;20.42;46.27;98472.81;4987066;28;20297;-71
2023/07/20 07:57:35;;;;;;;0.30;0.30;;;;;;;20.55;45.48;98469.44;4987010;28;20299;-72
2023/07/20 08:00:01;;;;;;;0.30;0.30;;;;;;;20.26;45.79;98469.00;4955960;28;20073;-72
2023/07/20 08:02:31;;;;;;;0.30;0.30;;;;;;;20.57;45.59;98471.03;4987150;28;20054;-71
2023/07/20 08:05:02;;;;;;;0.40;0.40;;;;;;;21.02;44.45;98468.50;4989484;28;20053;-71
2023/07/20 08:07:30;;;;;;;0.40;0.40;;;;;;;21.07;44.05;98480.09;4986596;28;20057;-71
2023/07/20 08:09:56;;;;;;;0.50;0.50;;;;;;;21.32;43.54;98474.00;4986355;28;20179;-71
2023/07/20 08:12:23;;;;;;;0.40;0.40;;;;;;;21.76;43.02;98474.50;4986785;28;20343;-71
2023/07/20 08:14:49;;;;;;;0.30;0.30;;;;;;;21.65;43.01;98477.97;4987910;28;20632;-72
2023/07/20 08:17:15;;;;;;;0.30;0.30;;;;;;;21.37;42.85;98465.31;4989041;28;20544;-70
2023/07/20 08:19:42;;;;;;;0.30;0.30;;;;;;;21.07;43.97;98471.75;4985265;28;20042;-72
2023/07/20 08:22:12;;;;;;;0.30;0.30;;;;;;;20.84;44.47;98482.97;5000975;28;20070;-72
2023/07/20 08:24:40;;;;;;;0.40;0.40;;;;;;;20.65;45.03;98483.84;4985575;28;21040;-71
2023/07/20 08:27:08;;;;;;;0.50;0.50;;;;;;;21.06;44.43;98486.78;4987000;28;20132;-72
2023/07/20 08:29:35;;;;;;;0.50;0.50;;;;;;;21.76;42.95;98482.84;4953617;28;20089;-72
2023/07/20 08:32:01;;;;;;;0.50;0.50;;;;;;;22.49;41.34;98476.69;4986201;28;20050;-72
2023/07/20 08:34:28;;;;;;;0.30;0.30;;;;;;;22.45;40.44;98473.03;5002458;28;20050;-71
2023/07/20 08:36:54;;;;;;;0.45;0.45;;;;;;;22.42;40.40;98478.59;4986244;28;20054;-71
2023/07/20 08:39:24;;;;;;;0.40;0.40;;;;;;;22.67;40.67;98462.09;4984112;28;20097;-71
2023/07/20 08:41:54;;;;;;;0.40;0.40;;;;;;;22.99;40.55;98463.41;4968996;28;20054;-71
2023/07/20 08:44:20;;;;;;;0.30;0.30;;;;;;;23.38;39.94;98479.53;5001473;28;20056;-72
2023/07/20 08:46:48;;;;;;;0.35;0.35;;;;;;;22.89;40.51;98474.13;4986533;28;20057;-72
2023/07/20 08:49:17;;;;;;;0.30;0.30;;;;;;;22.58;40.54;98473.56;5002446;28;20042;-72
2023/07/20 08:51:45;;;;;;;0.50;0.50;;;;;;;22.32;41.29;98466.19;5001628;28;20042;-71
2023/07/20 08:54:13;;;;;;;0.38;0.38;;;;;;;22.13;41.48;98468.03;4986279;28;20058;-71
2023/07/20 08:56:43;;;;;;;0.50;0.50;;;;;;;21.76;42.31;98478.06;5000703;28;20572;-71
2023/07/20 08:59:10;;;;;;;0.50;0.50;;;;;;;22.38;41.17;98465.44;4985475;28;20085;-70
2023/07/20 09:01:39;;;;;;;0.30;0.30;;;;;;;22.37;40.80;98476.97;4985526;28;20101;-72
2023/07/20 09:04:06;;;;;;;0.30;0.30;;;;;;;21.81;42.39;98480.50;4986063;28;20057;-72
2023/07/20 09:06:34;;;;;;;0.30;0.30;;;;;;;21.66;42.13;98476.78;4984682;28;20152;-71
2023/07/20 09:09:00;;;;;;;0.50;0.50;;;;;;;21.89;42.91;98481.38;4984015;28;20046;-72
2023/07/20 09:11:26;;;;;;;0.50;0.50;;;;;;;22.94;40.97;98481.31;4983547;28;20053;-71
2023/07/20 09:14:04;;;;;;;0.30;0.30;;;;;;;23.77;39.67;98478.03;4985622;28;20050;-71
2023/07/20 09:16:30;;;;;;;0.60;0.60;;;;;;;24.01;38.95;98481.22;4987225;28;20533;-72
2023/07/20 09:18:58;;;;;;;0.50;0.50;;;;;;;24.30;37.22;98476.47;5003671;28;20521;-71
2023/07/20 09:21:29;;;;;;;0.30;0.30;;;;;;;24.04;37.64;98477.66;4985009;28;20320;-70
2023/07/20 09:23:57;;;;;;;0.40;0.40;;;;;;;23.00;39.75;98479.75;4985067;28;20054;-71
2023/07/20 09:26:23;;;;;;;0.50;0.50;;;;;;;22.30;40.35;98482.47;4985340;28;20054;-71
2023/07/20 09:28:52;;;;;;;0.40;0.40;;;;;;;22.26;41.00;98473.31;4986948;28;20068;-71
2023/07/20 09:31:22;;;;;;;0.30;0.30;;;;;;;22.84;39.96;98487.63;4984618;28;20081;-71
2023/07/20 09:33:49;;;;;;;0.50;0.50;;;;;;;22.85;39.25;98476.09;4987240;28;20154;-71
2023/07/20 09:36:15;;;;;;;0.50;0.50;;;;;;;22.74;39.62;98478.81;4986234;28;20058;-71
2023/07/20 09:38:43;;;;;;;0.50;0.50;;;;;;;22.92;39.39;98483.69;4986255;28;20042;-71
2023/07/20 09:41:15;;;;;;;0.60;0.60;;;;;;;22.75;39.96;98483.19;4999196;28;20509;-71
2023/07/20 09:43:42;;;;;;;0.50;0.50;;;;;;;22.99;40.60;98499.66;4985475;28;20078;-71
2023/07/20 09:46:08;;;;;;;0.60;0.60;;;;;;;23.08;40.03;98500.09;4985076;28;20044;-71
2023/07/20 09:48:36;;;;;;;0.60;0.60;;;;;;;23.28;40.67;98486.69;4985216;28;20070;-71
2023/07/20 09:51:05;;;;;;;0.60;0.60;;;;;;;23.82;37.64;98508.31;4988620;28;20046;-71
2023/07/20 09:53:33;;;;;;;0.40;0.40;;;;;;;23.63;37.50;98476.00;4989384;28;20058;-71
2023/07/20 09:55:59;;;;;;;0.40;0.40;;;;;;;23.21;38.33;98481.84;5002619;28;20133;-71
2023/07/20 09:58:27;;;;;;;0.30;0.30;;;;;;;22.55;39.42;98498.59;4986088;28;20641;-72
2023/07/20 10:00:57;;;;;;;0.30;0.30;;;;;;;21.97;41.17;98496.16;4642223;28;10000149;-72
2023/07/20 10:03:28;;;;;;;0.30;0.30;;;;;;;21.81;41.87;98496.38;4983405;28;20054;-72
2023/07/20 10:05:58;;;;;;;0.30;0.30;;;;;;;21.65;43.69;98504.94;4985357;28;20047;-72
2023/07/20 10:08:25;;;;;;;0.40;0.40;;;;;;;21.41;43.69;98495.94;4986490;28;20077;-71
2023/07/20 10:10:52;;;;;;;0.30;0.30;;;;;;;21.44;43.79;98491.63;4983261;28;20046;-71
2023/07/20 10:13:25;;;;;;;0.30;0.30;;;;;;;21.55;44.23;98506.44;4984132;28;20609;-71
2023/07/20 10:15:55;;;;;;;0.30;0.30;;;;;;;21.14;47.72;98504.34;4985654;28;20054;-71
2023/07/20 10:18:28;;;;;;;0.30;0.30;;;;;;;20.35;52.14;98509.59;4987686;28;20585;-71
2023/07/20 10:20:59;;;;;;;0.30;0.30;;;;;;;19.77;56.20;98508.56;4984449;28;20429;-72
2023/07/20 10:23:28;;;;;;;0.30;0.30;;;;;;;19.15;57.85;98521.25;4983756;28;20093;-72
2023/07/20 10:25:55;;;;;;;0.40;0.40;;;;;;;18.95;60.01;98506.56;5000876;28;20101;-72
2023/07/20 10:28:25;;;;;;;0.47;0.47;;;;;;;20.08;59.72;98518.69;4986508;28;20524;-71
2023/07/20 10:30:52;;;;;;;0.60;0.60;;;;;;;22.55;51.94;98515.31;4985474;28;20050;-72
2023/07/20 10:33:20;;;;;;;0.60;0.60;;;;;;;25.10;45.17;98509.03;4984043;28;20050;-71
2023/07/20 10:35:53;;;;;;;0.55;0.55;;;;;;;26.97;39.86;98514.53;4990952;28;20105;-71
2023/07/20 10:38:39;;;;;;;0.30;0.30;;;;;;;26.52;40.37;98522.97;4990842;28;20069;-71
2023/07/20 10:41:16;;;;;;;0.30;0.30;;;;;;;25.34;40.73;98510.94;4986117;28;20076;-71
2023/07/20 10:43:43;;;;;;;0.40;0.40;;;;;;;24.13;42.49;98516.34;4990574;28;20632;-71
2023/07/20 10:46:11;;;;;;;0.30;0.30;;;;;;;23.21;44.17;98514.47;4973469;28;20105;-71
2023/07/20 10:49:02;;;;;;;0.30;0.30;;;;;;;22.44;45.77;98509.66;4991981;28;20047;-71
2023/07/20 10:51:30;;;;;;;0.30;0.30;;;;;;;22.21;47.11;98519.81;4989682;28;20065;-71
2023/07/20 10:53:58;;;;;;;0.30;0.30;;;;;;;22.19;47.37;98519.41;4990507;28;20049;-71
2023/07/20 10:56:30;;;;;;;0.30;0.30;;;;;;;21.95;47.60;98516.00;4987616;28;20109;-71
2023/07/20 10:58:58;;;;;;;0.30;0.30;;;;;;;21.72;48.71;98512.59;4942699;28;20659;-73
2023/07/20 11:01:29;;;;;;;0.30;0.30;;;;;;;21.43;49.55;98506.69;4978240;28;20236;-71
2023/07/20 11:04:00;;;;;;;0.30;0.30;;;;;;;21.22;49.92;98497.72;4989614;28;20132;-72
2023/07/20 11:06:33;;;;;;;0.30;0.30;;;;;;;20.91;51.06;98499.72;5005615;28;20065;-72
2023/07/20 11:09:10;;;;;;;0.38;0.30;;;;;;;20.62;51.63;98507.59;4990867;28;20065;-72
2023/07/20 11:11:38;;;;;;;0.30;0.30;;;;;;;20.46;52.22;98501.41;4989878;28;20066;-72
2023/07/20 11:14:06;;;;;;;0.30;0.30;;;;;;;20.34;52.42;98505.22;4971584;28;20057;-72
2023/07/20 11:16:37;;;;;;;0.30;0.30;;;;;;;20.06;53.16;98511.88;4990901;28;20097;-72
2023/07/20 11:19:04;;;;;;;0.20;0.20;;;;;;;19.70;54.59;98517.56;4972009;28;20043;-71
2023/07/20 11:21:36;;;;;;;0.20;0.20;;;;;;;19.52;56.03;98528.31;4989955;28;20121;-73
2023/07/20 11:24:04;;;;;;;0.30;0.30;;;;;;;19.34;56.32;98559.22;4973608;28;20058;-72
2023/07/20 11:26:40;;;;;;;0.30;0.30;;;;;;;17.62;75.64;98577.59;4990329;28;20042;-73
2023/07/20 11:29:06;;;;;;;0.20;0.20;;;;;;;16.06;85.76;98581.06;4990429;28;20038;-73
2023/07/20 11:31:35;;;;;;;0.20;0.20;;;;;;;15.30;92.90;98597.63;5003174;28;20042;-72
2023/07/20 11:34:01;;;;;;;0.20;0.20;;;;;;;15.11;98.52;98587.09;4991302;28;20054;-72
2023/07/20 11:36:28;;;;;;;0.30;0.30;;;;;;;15.47;100.00;98573.84;4990198;28;20073;-73
2023/07/20 11:38:54;;;;;;;0.30;0.30;;;;;;;15.92;100.00;98572.31;5006080;28;20545;-73